sensor_id;sensor_type;location;lat;lon;timestamp;P1;durP1;ratioP1;P2;durP2;ratioP2
549;SDS011;20066;48.764;9.176;2023-11-21T00:00:58;9.90;;;2.70;;
549;SDS011;20066;48.764;9.176;2023-11-21T00:03:27;6.40;;;2.50;;
549;SDS011;20066;48.764;9.176;2023-11-21T00:05:56;4.15;;;2.30;;
549;SDS011;20066;48.764;9.176;2023-11-21T00:08:25;5.60;;;2.30;;
549;SDS011;20066;48.764;9.176;2023-11-21T00:10:53;5.95;;;2.90;;
549;SDS011;20066;48.764;9.176;2023-11-21T00:13:21;23.67;;;8.30;;
549;SDS011;20066;48.764;9.176;2023-11-21T00:15:49;7.55;;;3.72;;
549;SDS011;20066;48.764;9.176;2023-11-21T00:18:17;8.43;;;3.28;;
549;SDS011;20066;48.764;9.176;2023-11-21T00:20:45;8.32;;;2.70;;
549;SDS011;20066;48.764;9.176;2023-11-21T00:23:13;15.98;;;2.88;;
549;SDS011;20066;48.764;9.176;2023-11-21T00:25:43;9.05;;;2.63;;
549;SDS011;20066;48.764;9.176;2023-11-21T00:28:11;8.70;;;2.63;;
549;SDS011;20066;48.764;9.176;2023-11-21T00:30:39;7.75;;;3.03;;
549;SDS011;20066;48.764;9.176;2023-11-21T00:33:07;6.53;;;2.67;;
549;SDS011;20066;48.764;9.176;2023-11-21T00:35:35;11.40;;;2.83;;
549;SDS011;20066;48.764;9.176;2023-11-21T00:38:03;8.60;;;3.00;;
549;SDS011;20066;48.764;9.176;2023-11-21T00:40:31;9.27;;;3.28;;
549;SDS011;20066;48.764;9.176;2023-11-21T00:43:00;7.50;;;2.55;;
549;SDS011;20066;48.764;9.176;2023-11-21T00:45:31;9.00;;;3.05;;
549;SDS011;20066;48.764;9.176;2023-11-21T00:47:59;7.22;;;3.25;;
549;SDS011;20066;48.764;9.176;2023-11-21T00:50:27;5.63;;;3.10;;
549;SDS011;20066;48.764;9.176;2023-11-21T00:52:55;5.35;;;2.78;;
549;SDS011;20066;48.764;9.176;2023-11-21T00:55:23;6.32;;;2.90;;
549;SDS011;20066;48.764;9.176;2023-11-21T00:57:52;6.10;;;3.05;;
549;SDS011;20066;48.764;9.176;2023-11-21T01:00:22;8.02;;;2.47;;
549;SDS011;20066;48.764;9.176;2023-11-21T01:02:50;6.50;;;2.13;;
549;SDS011;20066;48.764;9.176;2023-11-21T01:05:18;8.43;;;2.70;;
549;SDS011;20066;48.764;9.176;2023-11-21T01:07:47;11.85;;;2.72;;
549;SDS011;20066;48.764;9.176;2023-11-21T01:10:14;3.65;;;2.45;;
549;SDS011;20066;48.764;9.176;2023-11-21T01:12:43;8.95;;;2.65;;
549;SDS011;20066;48.764;9.176;2023-11-21T01:15:11;8.20;;;2.80;;
549;SDS011;20066;48.764;9.176;2023-11-21T01:17:40;5.28;;;2.10;;
549;SDS011;20066;48.764;9.176;2023-11-21T01:20:09;6.28;;;2.38;;
549;SDS011;20066;48.764;9.176;2023-11-21T01:22:40;5.50;;;2.38;;
549;SDS011;20066;48.764;9.176;2023-11-21T01:25:09;9.65;;;2.30;;
549;SDS011;20066;48.764;9.176;2023-11-21T01:27:38;5.20;;;2.20;;
549;SDS011;20066;48.764;9.176;2023-11-21T01:30:06;5.65;;;2.80;;
549;SDS011;20066;48.764;9.176;2023-11-21T01:32:37;5.35;;;2.15;;
549;SDS011;20066;48.764;9.176;2023-11-21T01:35:07;5.38;;;2.35;;
549;SDS011;20066;48.764;9.176;2023-11-21T01:37:36;3.47;;;1.95;;
549;SDS011;20066;48.764;9.176;2023-11-21T01:40:05;6.00;;;2.50;;
549;SDS011;20066;48.764;9.176;2023-11-21T01:42:35;3.92;;;2.22;;
549;SDS011;20066;48.764;9.176;2023-11-21T01:45:03;9.45;;;2.60;;
549;SDS011;20066;48.764;9.176;2023-11-21T01:47:32;7.35;;;2.70;;
549;SDS011;20066;48.764;9.176;2023-11-21T01:50:02;10.57;;;2.72;;
549;SDS011;20066;48.764;9.176;2023-11-21T01:52:32;3.85;;;2.00;;
549;SDS011;20066;48.764;9.176;2023-11-21T01:55:01;6.20;;;2.38;;
549;SDS011;20066;48.764;9.176;2023-11-21T01:57:31;7.53;;;2.72;;
549;SDS011;20066;48.764;9.176;2023-11-21T01:59:58;9.27;;;2.85;;
549;SDS011;20066;48.764;9.176;2023-11-21T02:02:42;4.82;;;2.10;;
549;SDS011;20066;48.764;9.176;2023-11-21T02:05:10;6.55;;;2.92;;
549;SDS011;20066;48.764;9.176;2023-11-21T02:07:40;6.82;;;2.30;;
549;SDS011;20066;48.764;9.176;2023-11-21T02:10:09;8.30;;;2.10;;
549;SDS011;20066;48.764;9.176;2023-11-21T02:12:40;3.38;;;1.80;;
549;SDS011;20066;48.764;9.176;2023-11-21T02:15:10;5.75;;;2.13;;
549;SDS011;20066;48.764;9.176;2023-11-21T02:17:46;3.60;;;1.80;;
549;SDS011;20066;48.764;9.176;2023-11-21T02:20:18;2.75;;;1.75;;
549;SDS011;20066;48.764;9.176;2023-11-21T02:22:51;2.78;;;1.80;;
549;SDS011;20066;48.764;9.176;2023-11-21T02:25:22;6.32;;;2.22;;
549;SDS011;20066;48.764;9.176;2023-11-21T02:27:50;2.55;;;1.58;;
549;SDS011;20066;48.764;9.176;2023-11-21T02:30:18;3.08;;;1.92;;
549;SDS011;20066;48.764;9.176;2023-11-21T02:32:46;3.97;;;2.20;;
549;SDS011;20066;48.764;9.176;2023-11-21T02:35:15;4.43;;;1.90;;
549;SDS011;20066;48.764;9.176;2023-11-21T02:37:43;3.50;;;2.05;;
549;SDS011;20066;48.764;9.176;2023-11-21T02:40:13;3.85;;;1.48;;
549;SDS011;20066;48.764;9.176;2023-11-21T02:42:44;2.72;;;1.70;;
549;SDS011;20066;48.764;9.176;2023-11-21T02:45:13;14.57;;;1.67;;
549;SDS011;20066;48.764;9.176;2023-11-21T02:47:43;3.65;;;1.83;;
549;SDS011;20066;48.764;9.176;2023-11-21T02:50:11;5.75;;;3.05;;
549;SDS011;20066;48.764;9.176;2023-11-21T02:52:39;5.97;;;1.92;;
549;SDS011;20066;48.764;9.176;2023-11-21T02:55:08;6.53;;;2.42;;
549;SDS011;20066;48.764;9.176;2023-11-21T02:57:37;4.45;;;1.45;;
549;SDS011;20066;48.764;9.176;2023-11-21T03:00:07;3.63;;;1.52;;
549;SDS011;20066;48.764;9.176;2023-11-21T03:02:35;2.75;;;1.50;;
549;SDS011;20066;48.764;9.176;2023-11-21T03:05:07;4.43;;;1.85;;
549;SDS011;20066;48.764;9.176;2023-11-21T03:07:36;7.22;;;1.83;;
549;SDS011;20066;48.764;9.176;2023-11-21T03:10:05;3.70;;;1.77;;
549;SDS011;20066;48.764;9.176;2023-11-21T03:12:35;3.17;;;1.90;;
549;SDS011;20066;48.764;9.176;2023-11-21T03:15:05;2.72;;;1.70;;
549;SDS011;20066;48.764;9.176;2023-11-21T03:17:33;3.72;;;1.55;;
549;SDS011;20066;48.764;9.176;2023-11-21T03:20:02;4.35;;;2.30;;
549;SDS011;20066;48.764;9.176;2023-11-21T03:22:31;9.05;;;2.17;;
549;SDS011;20066;48.764;9.176;2023-11-21T03:25:00;2.95;;;1.83;;
549;SDS011;20066;48.764;9.176;2023-11-21T03:27:29;3.10;;;1.90;;
549;SDS011;20066;48.764;9.176;2023-11-21T03:29:57;2.42;;;1.45;;
549;SDS011;20066;48.764;9.176;2023-11-21T03:32:26;3.35;;;1.30;;
549;SDS011;20066;48.764;9.176;2023-11-21T03:34:54;7.13;;;1.90;;
549;SDS011;20066;48.764;9.176;2023-11-21T03:37:25;2.60;;;1.55;;
549;SDS011;20066;48.764;9.176;2023-11-21T03:39:54;6.68;;;1.50;;
549;SDS011;20066;48.764;9.176;2023-11-21T03:42:23;1.88;;;1.20;;
549;SDS011;20066;48.764;9.176;2023-11-21T03:44:52;3.75;;;1.70;;
549;SDS011;20066;48.764;9.176;2023-11-21T03:47:20;2.40;;;1.58;;
549;SDS011;20066;48.764;9.176;2023-11-21T03:49:49;3.78;;;1.40;;
549;SDS011;20066;48.764;9.176;2023-11-21T03:52:17;3.75;;;1.50;;
549;SDS011;20066;48.764;9.176;2023-11-21T03:54:45;2.10;;;1.40;;
549;SDS011;20066;48.764;9.176;2023-11-21T03:57:12;4.65;;;1.60;;
549;SDS011;20066;48.764;9.176;2023-11-21T03:59:40;2.05;;;1.20;;
549;SDS011;20066;48.764;9.176;2023-11-21T04:02:08;1.98;;;1.48;;
549;SDS011;20066;48.764;9.176;2023-11-21T04:04:36;3.17;;;1.63;;
549;SDS011;20066;48.764;9.176;2023-11-21T04:07:06;5.20;;;2.00;;
549;SDS011;20066;48.764;9.176;2023-11-21T04:09:34;2.60;;;1.73;;
549;SDS011;20066;48.764;9.176;2023-11-21T04:12:02;4.22;;;2.00;;
549;SDS011;20066;48.764;9.176;2023-11-21T04:14:30;3.10;;;1.40;;
549;SDS011;20066;48.764;9.176;2023-11-21T04:16:58;3.38;;;2.25;;
549;SDS011;20066;48.764;9.176;2023-11-21T04:19:26;5.65;;;1.80;;
549;SDS011;20066;48.764;9.176;2023-11-21T04:21:54;8.15;;;1.83;;
549;SDS011;20066;48.764;9.176;2023-11-21T04:24:23;3.17;;;1.75;;
549;SDS011;20066;48.764;9.176;2023-11-21T04:26:52;2.65;;;1.40;;
549;SDS011;20066;48.764;9.176;2023-11-21T04:29:20;3.65;;;2.00;;
549;SDS011;20066;48.764;9.176;2023-11-21T04:31:49;2.40;;;1.15;;
549;SDS011;20066;48.764;9.176;2023-11-21T04:34:16;3.90;;;2.13;;
549;SDS011;20066;48.764;9.176;2023-11-21T04:36:45;3.25;;;1.33;;
549;SDS011;20066;48.764;9.176;2023-11-21T04:39:12;2.42;;;1.50;;
549;SDS011;20066;48.764;9.176;2023-11-21T04:41:42;2.85;;;1.40;;
549;SDS011;20066;48.764;9.176;2023-11-21T04:44:09;3.22;;;1.20;;
549;SDS011;20066;48.764;9.176;2023-11-21T04:46:37;1.73;;;1.33;;
549;SDS011;20066;48.764;9.176;2023-11-21T04:49:05;5.22;;;1.50;;
549;SDS011;20066;48.764;9.176;2023-11-21T04:51:33;3.95;;;1.30;;
549;SDS011;20066;48.764;9.176;2023-11-21T04:54:02;2.53;;;1.30;;
549;SDS011;20066;48.764;9.176;2023-11-21T04:56:30;2.60;;;1.40;;
549;SDS011;20066;48.764;9.176;2023-11-21T04:58:59;4.60;;;1.80;;
549;SDS011;20066;48.764;9.176;2023-11-21T05:01:27;3.92;;;1.60;;
549;SDS011;20066;48.764;9.176;2023-11-21T05:03:56;2.20;;;1.40;;
549;SDS011;20066;48.764;9.176;2023-11-21T05:06:24;8.25;;;2.15;;
549;SDS011;20066;48.764;9.176;2023-11-21T05:08:52;4.07;;;1.27;;
549;SDS011;20066;48.764;9.176;2023-11-21T05:11:24;3.10;;;1.30;;
549;SDS011;20066;48.764;9.176;2023-11-21T05:13:53;5.55;;;2.75;;
549;SDS011;20066;48.764;9.176;2023-11-21T05:16:25;3.70;;;2.10;;
549;SDS011;20066;48.764;9.176;2023-11-21T05:18:54;6.50;;;1.40;;
549;SDS011;20066;48.764;9.176;2023-11-21T05:21:26;7.05;;;1.52;;
549;SDS011;20066;48.764;9.176;2023-11-21T05:23:56;3.22;;;1.50;;
549;SDS011;20066;48.764;9.176;2023-11-21T05:26:23;2.92;;;1.95;;
549;SDS011;20066;48.764;9.176;2023-11-21T05:28:51;7.32;;;1.67;;
549;SDS011;20066;48.764;9.176;2023-11-21T05:31:19;2.80;;;1.40;;
549;SDS011;20066;48.764;9.176;2023-11-21T05:33:49;2.58;;;1.58;;
549;SDS011;20066;48.764;9.176;2023-11-21T05:36:16;3.15;;;1.73;;
549;SDS011;20066;48.764;9.176;2023-11-21T05:38:44;4.40;;;1.27;;
549;SDS011;20066;48.764;9.176;2023-11-21T05:41:12;4.40;;;1.50;;
549;SDS011;20066;48.764;9.176;2023-11-21T05:43:40;2.00;;;1.13;;
549;SDS011;20066;48.764;9.176;2023-11-21T05:46:08;4.93;;;1.40;;
549;SDS011;20066;48.764;9.176;2023-11-21T05:48:36;2.70;;;1.08;;
549;SDS011;20066;48.764;9.176;2023-11-21T05:51:05;1.60;;;1.38;;
549;SDS011;20066;48.764;9.176;2023-11-21T05:53:34;2.47;;;1.30;;
549;SDS011;20066;48.764;9.176;2023-11-21T05:56:02;2.65;;;1.65;;
549;SDS011;20066;48.764;9.176;2023-11-21T05:58:31;1.77;;;1.00;;
549;SDS011;20066;48.764;9.176;2023-11-21T06:00:59;2.85;;;1.30;;
549;SDS011;20066;48.764;9.176;2023-11-21T06:03:27;3.47;;;1.35;;
549;SDS011;20066;48.764;9.176;2023-11-21T06:05:55;3.75;;;1.50;;
549;SDS011;20066;48.764;9.176;2023-11-21T06:08:24;4.13;;;1.70;;
549;SDS011;20066;48.764;9.176;2023-11-21T06:10:52;2.05;;;1.10;;
549;SDS011;20066;48.764;9.176;2023-11-21T06:13:20;4.63;;;1.25;;
549;SDS011;20066;48.764;9.176;2023-11-21T06:15:51;6.32;;;1.77;;
549;SDS011;20066;48.764;9.176;2023-11-21T06:18:19;6.38;;;1.88;;
549;SDS011;20066;48.764;9.176;2023-11-21T06:20:46;3.30;;;1.48;;
549;SDS011;20066;48.764;9.176;2023-11-21T06:23:14;2.20;;;1.23;;
549;SDS011;20066;48.764;9.176;2023-11-21T06:25:44;3.22;;;1.40;;
549;SDS011;20066;48.764;9.176;2023-11-21T06:28:12;3.58;;;1.50;;
549;SDS011;20066;48.764;9.176;2023-11-21T06:30:43;2.85;;;1.30;;
549;SDS011;20066;48.764;9.176;2023-11-21T06:33:11;2.42;;;1.60;;
549;SDS011;20066;48.764;9.176;2023-11-21T06:35:39;3.38;;;2.40;;
549;SDS011;20066;48.764;9.176;2023-11-21T06:38:07;2.45;;;1.58;;
549;SDS011;20066;48.764;9.176;2023-11-21T06:40:35;3.17;;;1.50;;
549;SDS011;20066;48.764;9.176;2023-11-21T06:43:05;3.83;;;1.90;;
549;SDS011;20066;48.764;9.176;2023-11-21T06:45:33;2.63;;;1.35;;
549;SDS011;20066;48.764;9.176;2023-11-21T06:48:01;2.50;;;1.65;;
549;SDS011;20066;48.764;9.176;2023-11-21T06:50:29;6.40;;;1.80;;
549;SDS011;20066;48.764;9.176;2023-11-21T06:52:57;1.90;;;1.50;;
549;SDS011;20066;48.764;9.176;2023-11-21T06:55:25;1.90;;;1.50;;
549;SDS011;20066;48.764;9.176;2023-11-21T06:57:53;2.67;;;1.63;;
549;SDS011;20066;48.764;9.176;2023-11-21T07:00:22;6.20;;;2.45;;
549;SDS011;20066;48.764;9.176;2023-11-21T07:02:50;4.28;;;1.70;;
549;SDS011;20066;48.764;9.176;2023-11-21T07:05:18;2.90;;;1.75;;
549;SDS011;20066;48.764;9.176;2023-11-21T07:07:48;4.53;;;2.15;;
549;SDS011;20066;48.764;9.176;2023-11-21T07:10:17;2.17;;;1.77;;
549;SDS011;20066;48.764;9.176;2023-11-21T07:12:44;2.67;;;1.60;;
549;SDS011;20066;48.764;9.176;2023-11-21T07:15:12;3.17;;;1.90;;
549;SDS011;20066;48.764;9.176;2023-11-21T07:17:42;5.95;;;1.80;;
549;SDS011;20066;48.764;9.176;2023-11-21T07:20:10;2.80;;;1.55;;
549;SDS011;20066;48.764;9.176;2023-11-21T07:22:40;2.33;;;1.73;;
549;SDS011;20066;48.764;9.176;2023-11-21T07:25:08;2.42;;;1.60;;
549;SDS011;20066;48.764;9.176;2023-11-21T07:27:36;5.78;;;2.50;;
549;SDS011;20066;48.764;9.176;2023-11-21T07:30:05;4.05;;;2.00;;
549;SDS011;20066;48.764;9.176;2023-11-21T07:32:36;4.57;;;2.40;;
549;SDS011;20066;48.764;9.176;2023-11-21T07:35:08;3.38;;;1.80;;
549;SDS011;20066;48.764;9.176;2023-11-21T07:37:36;3.53;;;2.30;;
549;SDS011;20066;48.764;9.176;2023-11-21T07:40:05;3.40;;;2.00;;
549;SDS011;20066;48.764;9.176;2023-11-21T07:42:35;3.03;;;1.90;;
549;SDS011;20066;48.764;9.176;2023-11-21T07:45:03;4.78;;;2.00;;
549;SDS011;20066;48.764;9.176;2023-11-21T07:47:33;2.70;;;1.83;;
549;SDS011;20066;48.764;9.176;2023-11-21T07:50:02;5.57;;;1.92;;
549;SDS011;20066;48.764;9.176;2023-11-21T07:52:32;3.97;;;2.25;;
549;SDS011;20066;48.764;9.176;2023-11-21T07:55:00;2.05;;;1.50;;
549;SDS011;20066;48.764;9.176;2023-11-21T07:57:28;2.75;;;1.50;;
549;SDS011;20066;48.764;9.176;2023-11-21T07:59:56;1.63;;;1.30;;
549;SDS011;20066;48.764;9.176;2023-11-21T08:02:23;1.85;;;1.45;;
549;SDS011;20066;48.764;9.176;2023-11-21T08:04:52;2.00;;;1.42;;
549;SDS011;20066;48.764;9.176;2023-11-21T08:07:20;5.13;;;1.52;;
549;SDS011;20066;48.764;9.176;2023-11-21T08:09:49;2.65;;;1.35;;
549;SDS011;20066;48.764;9.176;2023-11-21T08:12:17;3.10;;;1.70;;
549;SDS011;20066;48.764;9.176;2023-11-21T08:14:46;1.83;;;1.50;;
549;SDS011;20066;48.764;9.176;2023-11-21T08:17:14;8.55;;;1.98;;
549;SDS011;20066;48.764;9.176;2023-11-21T08:19:44;2.88;;;1.48;;
549;SDS011;20066;48.764;9.176;2023-11-21T08:22:15;2.30;;;1.67;;
549;SDS011;20066;48.764;9.176;2023-11-21T08:24:44;3.50;;;1.45;;
549;SDS011;20066;48.764;9.176;2023-11-21T08:27:14;3.20;;;1.73;;
549;SDS011;20066;48.764;9.176;2023-11-21T08:29:43;3.05;;;1.83;;
549;SDS011;20066;48.764;9.176;2023-11-21T08:32:10;13.40;;;5.88;;
549;SDS011;20066;48.764;9.176;2023-11-21T08:34:38;6.93;;;3.60;;
549;SDS011;20066;48.764;9.176;2023-11-21T08:37:09;5.38;;;2.60;;
549;SDS011;20066;48.764;9.176;2023-11-21T08:39:38;5.97;;;2.65;;
549;SDS011;20066;48.764;9.176;2023-11-21T08:42:08;5.10;;;2.33;;
549;SDS011;20066;48.764;9.176;2023-11-21T08:44:37;4.35;;;2.10;;
549;SDS011;20066;48.764;9.176;2023-11-21T08:47:06;7.60;;;2.40;;
549;SDS011;20066;48.764;9.176;2023-11-21T08:49:34;5.68;;;2.72;;
549;SDS011;20066;48.764;9.176;2023-11-21T08:52:03;4.47;;;2.80;;
549;SDS011;20066;48.764;9.176;2023-11-21T08:54:31;3.35;;;2.10;;
549;SDS011;20066;48.764;9.176;2023-11-21T08:57:00;4.00;;;2.30;;
549;SDS011;20066;48.764;9.176;2023-11-21T08:59:28;3.33;;;2.42;;
549;SDS011;20066;48.764;9.176;2023-11-21T09:01:58;3.75;;;2.42;;
549;SDS011;20066;48.764;9.176;2023-11-21T09:04:26;4.53;;;2.20;;
549;SDS011;20066;48.764;9.176;2023-11-21T09:06:53;5.80;;;2.25;;
549;SDS011;20066;48.764;9.176;2023-11-21T09:09:21;5.40;;;2.13;;
549;SDS011;20066;48.764;9.176;2023-11-21T09:11:51;3.13;;;1.67;;
549;SDS011;20066;48.764;9.176;2023-11-21T09:14:18;2.17;;;1.60;;
549;SDS011;20066;48.764;9.176;2023-11-21T09:16:46;3.35;;;1.70;;
549;SDS011;20066;48.764;9.176;2023-11-21T09:19:15;6.95;;;1.95;;
549;SDS011;20066;48.764;9.176;2023-11-21T09:21:43;2.30;;;1.65;;
549;SDS011;20066;48.764;9.176;2023-11-21T09:24:11;7.43;;;2.17;;
549;SDS011;20066;48.764;9.176;2023-11-21T09:26:39;4.33;;;2.00;;
549;SDS011;20066;48.764;9.176;2023-11-21T09:29:07;3.90;;;1.60;;
549;SDS011;20066;48.764;9.176;2023-11-21T09:31:35;2.40;;;1.60;;
549;SDS011;20066;48.764;9.176;2023-11-21T09:34:05;2.90;;;1.80;;
549;SDS011;20066;48.764;9.176;2023-11-21T09:36:34;3.30;;;1.53;;
549;SDS011;20066;48.764;9.176;2023-11-21T09:39:05;1.93;;;1.20;;
549;SDS011;20066;48.764;9.176;2023-11-21T09:41:37;2.87;;;1.60;;
549;SDS011;20066;48.764;9.176;2023-11-21T09:44:11;3.53;;;1.53;;
549;SDS011;20066;48.764;9.176;2023-11-21T09:46:41;3.03;;;1.80;;
549;SDS011;20066;48.764;9.176;2023-11-21T09:49:09;4.17;;;1.80;;
549;SDS011;20066;48.764;9.176;2023-11-21T09:51:42;3.40;;;1.67;;
549;SDS011;20066;48.764;9.176;2023-11-21T09:54:10;3.20;;;1.93;;
549;SDS011;20066;48.764;9.176;2023-11-21T09:56:39;3.43;;;1.77;;
549;SDS011;20066;48.764;9.176;2023-11-21T09:59:09;7.10;;;1.90;;
549;SDS011;20066;48.764;9.176;2023-11-21T10:01:41;2.93;;;1.50;;
549;SDS011;20066;48.764;9.176;2023-11-21T10:04:10;1.50;;;1.30;;
549;SDS011;20066;48.764;9.176;2023-11-21T10:06:40;2.95;;;2.22;;
549;SDS011;20066;48.764;9.176;2023-11-21T10:09:09;3.28;;;1.80;;
549;SDS011;20066;48.764;9.176;2023-11-21T10:11:40;3.40;;;1.80;;
549;SDS011;20066;48.764;9.176;2023-11-21T10:14:09;2.47;;;1.53;;
549;SDS011;20066;48.764;9.176;2023-11-21T10:16:40;1.80;;;1.30;;
549;SDS011;20066;48.764;9.176;2023-11-21T10:19:10;1.67;;;1.20;;
549;SDS011;20066;48.764;9.176;2023-11-21T10:21:43;2.80;;;1.40;;
549;SDS011;20066;48.764;9.176;2023-11-21T10:24:11;1.70;;;1.10;;
549;SDS011;20066;48.764;9.176;2023-11-21T10:26:39;1.52;;;1.10;;
549;SDS011;20066;48.764;9.176;2023-11-21T10:29:18;2.90;;;1.57;;
549;SDS011;20066;48.764;9.176;2023-11-21T10:31:49;3.60;;;1.50;;
549;SDS011;20066;48.764;9.176;2023-11-21T10:34:18;2.70;;;1.70;;
549;SDS011;20066;48.764;9.176;2023-11-21T10:36:48;1.80;;;1.20;;
549;SDS011;20066;48.764;9.176;2023-11-21T10:39:16;1.67;;;1.00;;
549;SDS011;20066;48.764;9.176;2023-11-21T10:41:45;1.53;;;1.00;;
549;SDS011;20066;48.764;9.176;2023-11-21T10:44:14;1.30;;;0.87;;
549;SDS011;20066;48.764;9.176;2023-11-21T10:46:48;4.40;;;1.00;;
549;SDS011;20066;48.764;9.176;2023-11-21T10:49:17;2.10;;;1.27;;
549;SDS011;20066;48.764;9.176;2023-11-21T10:51:47;1.93;;;1.00;;
549;SDS011;20066;48.764;9.176;2023-11-21T10:54:18;1.60;;;0.90;;
549;SDS011;20066;48.764;9.176;2023-11-21T10:56:48;1.70;;;1.00;;
549;SDS011;20066;48.764;9.176;2023-11-21T10:59:18;1.53;;;0.90;;
549;SDS011;20066;48.764;9.176;2023-11-21T11:01:51;1.67;;;0.80;;
549;SDS011;20066;48.764;9.176;2023-11-21T11:04:19;4.47;;;1.00;;
549;SDS011;20066;48.764;9.176;2023-11-21T11:06:50;1.73;;;1.00;;
549;SDS011;20066;48.764;9.176;2023-11-21T11:09:22;2.13;;;1.30;;
549;SDS011;20066;48.764;9.176;2023-11-21T11:11:50;1.60;;;1.33;;
549;SDS011;20066;48.764;9.176;2023-11-21T11:14:19;2.67;;;1.40;;
549;SDS011;20066;48.764;9.176;2023-11-21T11:16:53;4.40;;;1.50;;
549;SDS011;20066;48.764;9.176;2023-11-21T11:19:21;4.73;;;1.90;;
549;SDS011;20066;48.764;9.176;2023-11-21T11:21:53;4.33;;;1.90;;
549;SDS011;20066;48.764;9.176;2023-11-21T11:24:36;2.87;;;1.40;;
549;SDS011;20066;48.764;9.176;2023-11-21T11:27:20;1.97;;;1.30;;
549;SDS011;20066;48.764;9.176;2023-11-21T11:29:56;1.87;;;1.10;;
549;SDS011;20066;48.764;9.176;2023-11-21T11:32:39;2.43;;;1.53;;
549;SDS011;20066;48.764;9.176;2023-11-21T11:35:15;2.20;;;1.30;;
549;SDS011;20066;48.764;9.176;2023-11-21T11:37:53;1.73;;;1.50;;
549;SDS011;20066;48.764;9.176;2023-11-21T11:40:21;3.80;;;1.50;;
549;SDS011;20066;48.764;9.176;2023-11-21T11:42:57;2.77;;;1.43;;
549;SDS011;20066;48.764;9.176;2023-11-21T11:45:31;3.33;;;1.30;;
549;SDS011;20066;48.764;9.176;2023-11-21T11:48:01;4.63;;;1.43;;
549;SDS011;20066;48.764;9.176;2023-11-21T11:50:30;2.43;;;1.20;;
549;SDS011;20066;48.764;9.176;2023-11-21T11:53:13;1.90;;;1.30;;
549;SDS011;20066;48.764;9.176;2023-11-21T11:55:41;4.33;;;1.40;;
549;SDS011;20066;48.764;9.176;2023-11-21T11:58:11;4.20;;;1.70;;
549;SDS011;20066;48.764;9.176;2023-11-21T12:00:40;3.80;;;1.40;;
549;SDS011;20066;48.764;9.176;2023-11-21T12:03:12;3.80;;;1.73;;
549;SDS011;20066;48.764;9.176;2023-11-21T12:05:41;4.53;;;2.77;;
549;SDS011;20066;48.764;9.176;2023-11-21T12:08:13;2.73;;;2.30;;
549;SDS011;20066;48.764;9.176;2023-11-21T12:10:43;3.67;;;2.90;;
549;SDS011;20066;48.764;9.176;2023-11-21T12:13:11;2.97;;;2.80;;
549;SDS011;20066;48.764;9.176;2023-11-21T12:15:39;4.90;;;3.03;;
549;SDS011;20066;48.764;9.176;2023-11-21T12:18:08;4.53;;;2.90;;
549;SDS011;20066;48.764;9.176;2023-11-21T12:20:37;5.67;;;2.90;;
549;SDS011;20066;48.764;9.176;2023-11-21T12:23:07;3.03;;;2.60;;
549;SDS011;20066;48.764;9.176;2023-11-21T12:25:39;2.83;;;2.40;;
549;SDS011;20066;48.764;9.176;2023-11-21T12:28:08;3.63;;;2.50;;
549;SDS011;20066;48.764;9.176;2023-11-21T12:30:36;4.47;;;2.77;;
549;SDS011;20066;48.764;9.176;2023-11-21T12:33:05;3.00;;;2.80;;
549;SDS011;20066;48.764;9.176;2023-11-21T12:35:36;3.07;;;2.10;;
549;SDS011;20066;48.764;9.176;2023-11-21T12:38:05;3.17;;;2.20;;
549;SDS011;20066;48.764;9.176;2023-11-21T12:40:35;3.27;;;2.17;;
549;SDS011;20066;48.764;9.176;2023-11-21T12:43:04;2.50;;;1.80;;
549;SDS011;20066;48.764;9.176;2023-11-21T12:45:36;3.30;;;2.20;;
549;SDS011;20066;48.764;9.176;2023-11-21T12:48:05;2.60;;;2.27;;
549;SDS011;20066;48.764;9.176;2023-11-21T12:50:35;3.03;;;2.10;;
549;SDS011;20066;48.764;9.176;2023-11-21T12:53:04;4.40;;;2.20;;
549;SDS011;20066;48.764;9.176;2023-11-21T12:55:35;2.70;;;1.90;;
549;SDS011;20066;48.764;9.176;2023-11-21T12:58:07;2.03;;;1.65;;
549;SDS011;20066;48.764;9.176;2023-11-21T13:00:38;2.30;;;1.38;;
549;SDS011;20066;48.764;9.176;2023-11-21T13:03:10;2.50;;;1.70;;
549;SDS011;20066;48.764;9.176;2023-11-21T13:05:43;1.85;;;1.52;;
549;SDS011;20066;48.764;9.176;2023-11-21T13:08:14;3.23;;;1.60;;
549;SDS011;20066;48.764;9.176;2023-11-21T13:10:47;2.20;;;1.63;;
549;SDS011;20066;48.764;9.176;2023-11-21T13:13:18;2.20;;;1.50;;
549;SDS011;20066;48.764;9.176;2023-11-21T13:15:51;3.10;;;1.40;;
549;SDS011;20066;48.764;9.176;2023-11-21T13:18:22;2.50;;;1.80;;
549;SDS011;20066;48.764;9.176;2023-11-21T13:20:53;3.07;;;1.60;;
549;SDS011;20066;48.764;9.176;2023-11-21T13:23:23;2.40;;;1.70;;
549;SDS011;20066;48.764;9.176;2023-11-21T13:25:51;2.40;;;1.57;;
549;SDS011;20066;48.764;9.176;2023-11-21T13:28:31;1.50;;;1.30;;
549;SDS011;20066;48.764;9.176;2023-11-21T13:31:00;1.60;;;1.00;;
549;SDS011;20066;48.764;9.176;2023-11-21T13:33:37;2.33;;;1.30;;
549;SDS011;20066;48.764;9.176;2023-11-21T13:36:05;2.13;;;1.30;;
549;SDS011;20066;48.764;9.176;2023-11-21T13:38:37;2.28;;;1.30;;
549;SDS011;20066;48.764;9.176;2023-11-21T13:41:09;3.90;;;1.70;;
549;SDS011;20066;48.764;9.176;2023-11-21T13:43:42;1.90;;;1.40;;
549;SDS011;20066;48.764;9.176;2023-11-21T13:46:17;2.38;;;1.75;;
549;SDS011;20066;48.764;9.176;2023-11-21T13:48:49;4.50;;;1.85;;
549;SDS011;20066;48.764;9.176;2023-11-21T13:51:23;3.03;;;2.22;;
549;SDS011;20066;48.764;9.176;2023-11-21T13:53:58;3.17;;;1.88;;
549;SDS011;20066;48.764;9.176;2023-11-21T13:56:27;6.35;;;2.50;;
549;SDS011;20066;48.764;9.176;2023-11-21T13:58:58;5.15;;;2.08;;
549;SDS011;20066;48.764;9.176;2023-11-21T14:01:32;3.50;;;1.73;;
549;SDS011;20066;48.764;9.176;2023-11-21T14:04:20;3.90;;;2.88;;
549;SDS011;20066;48.764;9.176;2023-11-21T14:07:02;9.02;;;2.70;;
549;SDS011;20066;48.764;9.176;2023-11-21T14:09:47;3.78;;;2.10;;
549;SDS011;20066;48.764;9.176;2023-11-21T14:12:16;3.20;;;2.70;;
549;SDS011;20066;48.764;9.176;2023-11-21T14:14:45;4.22;;;2.78;;
549;SDS011;20066;48.764;9.176;2023-11-21T14:17:14;4.10;;;3.13;;
549;SDS011;20066;48.764;9.176;2023-11-21T14:19:42;3.67;;;2.45;;
549;SDS011;20066;48.764;9.176;2023-11-21T14:22:10;3.47;;;2.70;;
549;SDS011;20066;48.764;9.176;2023-11-21T14:24:39;6.75;;;3.00;;
549;SDS011;20066;48.764;9.176;2023-11-21T14:27:10;3.63;;;2.70;;
549;SDS011;20066;48.764;9.176;2023-11-21T14:29:38;6.07;;;3.00;;
549;SDS011;20066;48.764;9.176;2023-11-21T14:32:11;3.00;;;2.22;;
549;SDS011;20066;48.764;9.176;2023-11-21T14:34:41;4.78;;;2.72;;
549;SDS011;20066;48.764;9.176;2023-11-21T14:37:12;4.88;;;3.13;;
549;SDS011;20066;48.764;9.176;2023-11-21T14:39:40;4.50;;;2.75;;
549;SDS011;20066;48.764;9.176;2023-11-21T14:42:11;5.60;;;2.90;;
549;SDS011;20066;48.764;9.176;2023-11-21T14:44:41;5.32;;;3.30;;
549;SDS011;20066;48.764;9.176;2023-11-21T14:47:11;8.52;;;3.50;;
549;SDS011;20066;48.764;9.176;2023-11-21T14:49:43;6.20;;;3.67;;
549;SDS011;20066;48.764;9.176;2023-11-21T14:52:20;7.00;;;5.68;;
549;SDS011;20066;48.764;9.176;2023-11-21T14:55:08;4.25;;;3.97;;
549;SDS011;20066;48.764;9.176;2023-11-21T14:57:57;3.53;;;2.58;;
549;SDS011;20066;48.764;9.176;2023-11-21T15:00:29;4.57;;;4.30;;
549;SDS011;20066;48.764;9.176;2023-11-21T15:03:12;4.50;;;3.65;;
549;SDS011;20066;48.764;9.176;2023-11-21T15:06:00;6.95;;;5.18;;
549;SDS011;20066;48.764;9.176;2023-11-21T15:08:48;5.47;;;4.43;;
549;SDS011;20066;48.764;9.176;2023-11-21T15:11:19;3.97;;;3.78;;
549;SDS011;20066;48.764;9.176;2023-11-21T15:13:51;5.72;;;4.53;;
549;SDS011;20066;48.764;9.176;2023-11-21T15:16:20;9.23;;;6.03;;
549;SDS011;20066;48.764;9.176;2023-11-21T15:18:49;5.10;;;4.20;;
549;SDS011;20066;48.764;9.176;2023-11-21T15:21:17;5.28;;;4.57;;
549;SDS011;20066;48.764;9.176;2023-11-21T15:23:47;4.65;;;4.40;;
549;SDS011;20066;48.764;9.176;2023-11-21T15:26:15;5.20;;;4.57;;
549;SDS011;20066;48.764;9.176;2023-11-21T15:28:44;6.88;;;4.47;;
549;SDS011;20066;48.764;9.176;2023-11-21T15:31:12;5.78;;;5.00;;